sensor_id;sensor_type;location;lat;lon;timestamp;temperature;humidity
2202;DHT22;1107;48.654;9.250;2022-10-29T00:02:18;14.80;1.00
2202;DHT22;1107;48.654;9.250;2022-10-29T00:04:45;14.60;1.00
2202;DHT22;1107;48.654;9.250;2022-10-29T00:07:13;14.60;1.00
2202;DHT22;1107;48.654;9.250;2022-10-29T00:09:40;14.60;1.00
2202;DHT22;1107;48.654;9.250;2022-10-29T00:12:07;14.60;1.00
2202;DHT22;1107;48.654;9.250;2022-10-29T00:14:35;14.60;1.00
2202;DHT22;1107;48.654;9.250;2022-10-29T00:17:02;14.50;1.00
2202;DHT22;1107;48.654;9.250;2022-10-29T00:19:29;14.50;1.00
2202;DHT22;1107;48.654;9.250;2022-10-29T00:21:55;14.40;1.00
2202;DHT22;1107;48.654;9.250;2022-10-29T00:24:24;14.40;1.00
2202;DHT22;1107;48.654;9.250;2022-10-29T00:26:51;14.40;1.00
2202;DHT22;1107;48.654;9.250;2022-10-29T00:29:18;14.40;1.00
2202;DHT22;1107;48.654;9.250;2022-10-29T00:31:45;14.40;1.00
2202;DHT22;1107;48.654;9.250;2022-10-29T00:34:11;14.30;1.00
2202;DHT22;1107;48.654;9.250;2022-10-29T00:36:38;14.30;1.00
2202;DHT22;1107;48.654;9.250;2022-10-29T00:39:05;14.30;1.00
2202;DHT22;1107;48.654;9.250;2022-10-29T00:41:34;14.30;1.00
2202;DHT22;1107;48.654;9.250;2022-10-29T00:44:30;14.30;1.00
2202;DHT22;1107;48.654;9.250;2022-10-29T00:47:00;14.30;1.00
2202;DHT22;1107;48.654;9.250;2022-10-29T00:49:29;14.30;1.00
2202;DHT22;1107;48.654;9.250;2022-10-29T00:51:57;14.30;1.00
2202;DHT22;1107;48.654;9.250;2022-10-29T00:54:27;14.30;1.00
2202;DHT22;1107;48.654;9.250;2022-10-29T00:57:00;14.30;1.00
2202;DHT22;1107;48.654;9.250;2022-10-29T00:59:29;14.30;1.00
2202;DHT22;1107;48.654;9.250;2022-10-29T01:01:56;14.30;1.00
2202;DHT22;1107;48.654;9.250;2022-10-29T01:04:23;14.30;1.00
2202;DHT22;1107;48.654;9.250;2022-10-29T01:06:51;14.20;1.00
2202;DHT22;1107;48.654;9.250;2022-10-29T01:09:18;14.20;1.00
2202;DHT22;1107;48.654;9.250;2022-10-29T01:11:54;14.20;1.00
2202;DHT22;1107;48.654;9.250;2022-10-29T01:14:31;14.20;1.00
2202;DHT22;1107;48.654;9.250;2022-10-29T01:17:06;14.20;1.00
2202;DHT22;1107;48.654;9.250;2022-10-29T01:20:00;14.20;1.00
2202;DHT22;1107;48.654;9.250;2022-10-29T01:22:35;14.20;1.00
2202;DHT22;1107;48.654;9.250;2022-10-29T01:25:25;14.30;1.00
2202;DHT22;1107;48.654;9.250;2022-10-29T01:28:05;14.30;1.00
2202;DHT22;1107;48.654;9.250;2022-10-29T01:31:01;14.30;1.00
2202;DHT22;1107;48.654;9.250;2022-10-29T01:33:35;14.40;1.00
2202;DHT22;1107;48.654;9.250;2022-10-29T01:36:13;14.40;1.00
2202;DHT22;1107;48.654;9.250;2022-10-29T01:38:50;14.40;1.00
2202;DHT22;1107;48.654;9.250;2022-10-29T01:41:22;14.30;1.00
2202;DHT22;1107;48.654;9.250;2022-10-29T01:43:54;14.20;1.00
2202;DHT22;1107;48.654;9.250;2022-10-29T01:46:28;14.20;1.00
2202;DHT22;1107;48.654;9.250;2022-10-29T01:49:03;14.10;1.00
2202;DHT22;1107;48.654;9.250;2022-10-29T01:51:33;14.00;1.00
2202;DHT22;1107;48.654;9.250;2022-10-29T01:54:06;14.00;1.00
2202;DHT22;1107;48.654;9.250;2022-10-29T01:56:34;13.90;1.00
2202;DHT22;1107;48.654;9.250;2022-10-29T01:59:03;13.90;1.00
2202;DHT22;1107;48.654;9.250;2022-10-29T02:01:42;13.80;1.00
2202;DHT22;1107;48.654;9.250;2022-10-29T02:04:24;13.80;1.00
2202;DHT22;1107;48.654;9.250;2022-10-29T02:06:58;13.80;1.00
2202;DHT22;1107;48.654;9.250;2022-10-29T02:09:32;13.80;1.00
2202;DHT22;1107;48.654;9.250;2022-10-29T02:12:05;13.80;1.00
2202;DHT22;1107;48.654;9.250;2022-10-29T02:14:37;13.80;1.00
2202;DHT22;1107;48.654;9.250;2022-10-29T02:17:06;13.80;1.00
2202;DHT22;1107;48.654;9.250;2022-10-29T02:19:34;13.80;1.00
2202;DHT22;1107;48.654;9.250;2022-10-29T02:22:01;13.80;1.00
2202;DHT22;1107;48.654;9.250;2022-10-29T02:24:28;13.80;1.00
2202;DHT22;1107;48.654;9.250;2022-10-29T02:26:55;13.80;1.00
2202;DHT22;1107;48.654;9.250;2022-10-29T02:29:22;13.80;1.00
2202;DHT22;1107;48.654;9.250;2022-10-29T02:31:49;13.80;1.00
2202;DHT22;1107;48.654;9.250;2022-10-29T02:34:18;13.80;1.00
2202;DHT22;1107;48.654;9.250;2022-10-29T02:36:45;13.90;1.00
2202;DHT22;1107;48.654;9.250;2022-10-29T02:39:11;13.90;1.00
2202;DHT22;1107;48.654;9.250;2022-10-29T02:41:38;13.90;1.00
2202;DHT22;1107;48.654;9.250;2022-10-29T02:44:05;13.90;1.00
2202;DHT22;1107;48.654;9.250;2022-10-29T02:46:32;13.90;1.00
2202;DHT22;1107;48.654;9.250;2022-10-29T02:49:00;13.90;1.00
2202;DHT22;1107;48.654;9.250;2022-10-29T02:51:29;13.90;1.00
2202;DHT22;1107;48.654;9.250;2022-10-29T02:53:55;13.90;1.00
2202;DHT22;1107;48.654;9.250;2022-10-29T02:56:23;13.90;1.00
2202;DHT22;1107;48.654;9.250;2022-10-29T02:58:50;14.00;1.00
2202;DHT22;1107;48.654;9.250;2022-10-29T03:01:17;14.00;1.00
2202;DHT22;1107;48.654;9.250;2022-10-29T03:03:43;14.10;1.00
2202;DHT22;1107;48.654;9.250;2022-10-29T03:06:15;14.20;1.00
2202;DHT22;1107;48.654;9.250;2022-10-29T03:08:43;14.20;1.00
2202;DHT22;1107;48.654;9.250;2022-10-29T03:11:11;14.20;1.00
2202;DHT22;1107;48.654;9.250;2022-10-29T03:13:38;14.20;1.00
2202;DHT22;1107;48.654;9.250;2022-10-29T03:16:05;14.20;1.00
2202;DHT22;1107;48.654;9.250;2022-10-29T03:18:32;14.20;1.00
2202;DHT22;1107;48.654;9.250;2022-10-29T03:20:59;14.20;1.00
2202;DHT22;1107;48.654;9.250;2022-10-29T03:23:26;14.20;1.00
2202;DHT22;1107;48.654;9.250;2022-10-29T03:25:55;14.20;1.00
2202;DHT22;1107;48.654;9.250;2022-10-29T03:28:23;14.20;1.00
2202;DHT22;1107;48.654;9.250;2022-10-29T03:30:50;14.20;1.00
2202;DHT22;1107;48.654;9.250;2022-10-29T03:33:17;14.20;1.00
2202;DHT22;1107;48.654;9.250;2022-10-29T03:35:44;14.20;1.00
2202;DHT22;1107;48.654;9.250;2022-10-29T03:38:11;14.20;1.00
2202;DHT22;1107;48.654;9.250;2022-10-29T03:40:39;14.20;1.00
2202;DHT22;1107;48.654;9.250;2022-10-29T03:43:07;14.10;1.00
2202;DHT22;1107;48.654;9.250;2022-10-29T03:45:34;14.10;1.00
2202;DHT22;1107;48.654;9.250;2022-10-29T03:48:03;14.10;1.00
2202;DHT22;1107;48.654;9.250;2022-10-29T03:50:30;14.10;1.00
2202;DHT22;1107;48.654;9.250;2022-10-29T03:52:57;14.10;1.00
2202;DHT22;1107;48.654;9.250;2022-10-29T03:55:24;14.10;1.00
2202;DHT22;1107;48.654;9.250;2022-10-29T03:57:53;14.10;1.00
2202;DHT22;1107;48.654;9.250;2022-10-29T04:00:22;14.10;1.00
2202;DHT22;1107;48.654;9.250;2022-10-29T04:02:49;14.00;1.00
2202;DHT22;1107;48.654;9.250;2022-10-29T04:05:16;14.00;1.00
2202;DHT22;1107;48.654;9.250;2022-10-29T04:07:42;14.00;1.00
2202;DHT22;1107;48.654;9.250;2022-10-29T04:10:09;14.10;1.00
2202;DHT22;1107;48.654;9.250;2022-10-29T04:12:36;14.10;1.00
2202;DHT22;1107;48.654;9.250;2022-10-29T04:15:04;14.10;1.00
2202;DHT22;1107;48.654;9.250;2022-10-29T04:17:33;14.10;1.00
2202;DHT22;1107;48.654;9.250;2022-10-29T04:20:00;14.10;1.00
2202;DHT22;1107;48.654;9.250;2022-10-29T04:22:26;14.10;1.00
2202;DHT22;1107;48.654;9.250;2022-10-29T04:24:53;14.10;1.00
2202;DHT22;1107;48.654;9.250;2022-10-29T04:27:20;14.10;1.00
2202;DHT22;1107;48.654;9.250;2022-10-29T04:29:47;14.00;1.00
2202;DHT22;1107;48.654;9.250;2022-10-29T04:32:14;13.90;1.00
2202;DHT22;1107;48.654;9.250;2022-10-29T04:34:44;13.70;1.00
2202;DHT22;1107;48.654;9.250;2022-10-29T04:37:11;13.60;1.00
2202;DHT22;1107;48.654;9.250;2022-10-29T04:39:37;13.60;1.00
2202;DHT22;1107;48.654;9.250;2022-10-29T04:42:04;13.50;1.00
2202;DHT22;1107;48.654;9.250;2022-10-29T04:44:31;13.40;1.00
2202;DHT22;1107;48.654;9.250;2022-10-29T04:46:58;13.40;1.00
2202;DHT22;1107;48.654;9.250;2022-10-29T04:49:25;13.40;1.00
2202;DHT22;1107;48.654;9.250;2022-10-29T04:51:53;13.40;1.00
2202;DHT22;1107;48.654;9.250;2022-10-29T04:54:20;13.40;1.00
2202;DHT22;1107;48.654;9.250;2022-10-29T04:56:47;13.40;1.00
2202;DHT22;1107;48.654;9.250;2022-10-29T04:59:14;13.40;1.00
2202;DHT22;1107;48.654;9.250;2022-10-29T05:01:41;13.40;1.00
2202;DHT22;1107;48.654;9.250;2022-10-29T05:04:08;13.40;1.00
2202;DHT22;1107;48.654;9.250;2022-10-29T05:06:35;13.40;1.00
2202;DHT22;1107;48.654;9.250;2022-10-29T05:09:03;13.40;1.00
2202;DHT22;1107;48.654;9.250;2022-10-29T05:11:30;13.40;1.00
2202;DHT22;1107;48.654;9.250;2022-10-29T05:13:57;13.40;8.00
2202;DHT22;1107;48.654;9.250;2022-10-29T05:16:24;13.30;18.50
2202;DHT22;1107;48.654;9.250;2022-10-29T05:18:51;13.30;23.90
2202;DHT22;1107;48.654;9.250;2022-10-29T05:21:18;13.30;20.60
2202;DHT22;1107;48.654;9.250;2022-10-29T05:23:45;13.30;12.50
2202;DHT22;1107;48.654;9.250;2022-10-29T05:26:13;13.30;13.40
2202;DHT22;1107;48.654;9.250;2022-10-29T05:28:40;13.30;20.90
2202;DHT22;1107;48.654;9.250;2022-10-29T05:31:07;13.30;29.30
2202;DHT22;1107;48.654;9.250;2022-10-29T05:33:34;13.30;32.60
2202;DHT22;1107;48.654;9.250;2022-10-29T05:36:01;13.40;30.10
2202;DHT22;1107;48.654;9.250;2022-10-29T05:38:28;13.40;14.00
2202;DHT22;1107;48.654;9.250;2022-10-29T05:40:57;13.50;2.00
2202;DHT22;1107;48.654;9.250;2022-10-29T05:43:25;13.50;1.00
2202;DHT22;1107;48.654;9.250;2022-10-29T05:45:52;13.40;1.00
2202;DHT22;1107;48.654;9.250;2022-10-29T05:48:19;13.50;1.00
2202;DHT22;1107;48.654;9.250;2022-10-29T05:50:46;13.60;1.00
2202;DHT22;1107;48.654;9.250;2022-10-29T05:53:13;13.80;1.00
2202;DHT22;1107;48.654;9.250;2022-10-29T05:55:40;13.90;99.90
2202;DHT22;1107;48.654;9.250;2022-10-29T05:58:10;14.20;1.00
2202;DHT22;1107;48.654;9.250;2022-10-29T06:00:40;14.40;99.90
2202;DHT22;1107;48.654;9.250;2022-10-29T06:03:11;14.40;1.00
2202;DHT22;1107;48.654;9.250;2022-10-29T06:05:38;14.30;1.00
2202;DHT22;1107;48.654;9.250;2022-10-29T06:08:05;14.10;1.00
2202;DHT22;1107;48.654;9.250;2022-10-29T06:10:32;13.90;1.00
2202;DHT22;1107;48.654;9.250;2022-10-29T06:12:59;13.80;1.00
2202;DHT22;1107;48.654;9.250;2022-10-29T06:15:26;13.70;1.00
2202;DHT22;1107;48.654;9.250;2022-10-29T06:17:54;13.60;1.00
2202;DHT22;1107;48.654;9.250;2022-10-29T06:20:21;13.50;1.00
2202;DHT22;1107;48.654;9.250;2022-10-29T06:22:55;13.40;1.00
2202;DHT22;1107;48.654;9.250;2022-10-29T06:25:23;13.30;1.00
2202;DHT22;1107;48.654;9.250;2022-10-29T06:27:57;13.30;1.00
2202;DHT22;1107;48.654;9.250;2022-10-29T06:30:25;13.30;1.00
2202;DHT22;1107;48.654;9.250;2022-10-29T06:32:53;13.30;1.00
2202;DHT22;1107;48.654;9.250;2022-10-29T06:35:20;13.40;1.00
2202;DHT22;1107;48.654;9.250;2022-10-29T06:37:47;13.50;1.00
2202;DHT22;1107;48.654;9.250;2022-10-29T06:40:14;13.60;1.00
2202;DHT22;1107;48.654;9.250;2022-10-29T06:42:41;13.70;1.00
2202;DHT22;1107;48.654;9.250;2022-10-29T06:45:09;13.80;1.00
2202;DHT22;1107;48.654;9.250;2022-10-29T06:47:39;13.90;1.00
2202;DHT22;1107;48.654;9.250;2022-10-29T06:50:09;14.10;1.00
2202;DHT22;1107;48.654;9.250;2022-10-29T06:52:36;14.20;1.00
2202;DHT22;1107;48.654;9.250;2022-10-29T06:55:05;14.20;1.00
2202;DHT22;1107;48.654;9.250;2022-10-29T06:57:32;14.30;1.00
2202;DHT22;1107;48.654;9.250;2022-10-29T06:59:59;14.40;1.00
2202;DHT22;1107;48.654;9.250;2022-10-29T07:02:26;14.50;99.90
2202;DHT22;1107;48.654;9.250;2022-10-29T07:04:53;14.70;1.00
2202;DHT22;1107;48.654;9.250;2022-10-29T07:07:21;14.90;1.00
2202;DHT22;1107;48.654;9.250;2022-10-29T07:09:48;15.20;99.90
2202;DHT22;1107;48.654;9.250;2022-10-29T07:12:15;15.40;99.90
2202;DHT22;1107;48.654;9.250;2022-10-29T07:14:42;15.40;1.00
2202;DHT22;1107;48.654;9.250;2022-10-29T07:17:09;15.70;68.10
2202;DHT22;1107;48.654;9.250;2022-10-29T07:19:36;15.80;18.60
2202;DHT22;1107;48.654;9.250;2022-10-29T07:22:03;15.90;1.00
2202;DHT22;1107;48.654;9.250;2022-10-29T07:24:31;16.10;99.90
2202;DHT22;1107;48.654;9.250;2022-10-29T07:26:58;16.20;1.00
2202;DHT22;1107;48.654;9.250;2022-10-29T07:29:26;16.20;1.00
2202;DHT22;1107;48.654;9.250;2022-10-29T07:31:53;16.30;99.90
2202;DHT22;1107;48.654;9.250;2022-10-29T07:34:20;16.70;1.00
2202;DHT22;1107;48.654;9.250;2022-10-29T07:36:47;16.90;99.90
2202;DHT22;1107;48.654;9.250;2022-10-29T07:39:14;17.00;1.00
2202;DHT22;1107;48.654;9.250;2022-10-29T07:41:43;17.10;1.00
2202;DHT22;1107;48.654;9.250;2022-10-29T07:44:10;17.20;99.90
2202;DHT22;1107;48.654;9.250;2022-10-29T07:46:36;17.30;99.90
2202;DHT22;1107;48.654;9.250;2022-10-29T07:49:03;17.50;17.00
2202;DHT22;1107;48.654;9.250;2022-10-29T07:51:30;17.70;1.00
2202;DHT22;1107;48.654;9.250;2022-10-29T07:53:57;18.10;1.00
2202;DHT22;1107;48.654;9.250;2022-10-29T07:56:24;18.50;99.90
2202;DHT22;1107;48.654;9.250;2022-10-29T07:58:52;19.00;99.90
2202;DHT22;1107;48.654;9.250;2022-10-29T08:01:19;19.40;78.20
2202;DHT22;1107;48.654;9.250;2022-10-29T08:03:48;19.70;1.00
2202;DHT22;1107;48.654;9.250;2022-10-29T08:06:16;19.90;1.00
2202;DHT22;1107;48.654;9.250;2022-10-29T08:08:43;20.00;1.00
2202;DHT22;1107;48.654;9.250;2022-10-29T08:11:09;19.80;1.00
2202;DHT22;1107;48.654;9.250;2022-10-29T08:13:36;19.70;1.00
2202;DHT22;1107;48.654;9.250;2022-10-29T08:16:05;19.20;1.00
2202;DHT22;1107;48.654;9.250;2022-10-29T08:18:32;18.90;1.00
2202;DHT22;1107;48.654;9.250;2022-10-29T08:21:02;18.70;1.00
2202;DHT22;1107;48.654;9.250;2022-10-29T08:23:29;18.40;1.00
2202;DHT22;1107;48.654;9.250;2022-10-29T08:25:56;18.40;1.00
2202;DHT22;1107;48.654;9.250;2022-10-29T08:28:24;18.50;1.00
2202;DHT22;1107;48.654;9.250;2022-10-29T08:30:51;18.40;1.00
2202;DHT22;1107;48.654;9.250;2022-10-29T08:33:19;18.40;57.50
2202;DHT22;1107;48.654;9.250;2022-10-29T08:35:46;18.40;91.90
2202;DHT22;1107;48.654;9.250;2022-10-29T08:38:13;18.50;69.70
2202;DHT22;1107;48.654;9.250;2022-10-29T08:40:49;18.70;1.00
2202;DHT22;1107;48.654;9.250;2022-10-29T08:43:52;19.10;1.00
2202;DHT22;1107;48.654;9.250;2022-10-29T08:46:31;19.50;1.00
2202;DHT22;1107;48.654;9.250;2022-10-29T08:49:04;20.00;1.00
2202;DHT22;1107;48.654;9.250;2022-10-29T08:51:36;19.80;1.00
2202;DHT22;1107;48.654;9.250;2022-10-29T08:54:04;19.60;1.00
2202;DHT22;1107;48.654;9.250;2022-10-29T08:56:37;19.70;1.00
2202;DHT22;1107;48.654;9.250;2022-10-29T08:59:07;19.80;1.00
2202;DHT22;1107;48.654;9.250;2022-10-29T09:01:37;19.90;1.00
2202;DHT22;1107;48.654;9.250;2022-10-29T09:04:22;20.00;1.00
2202;DHT22;1107;48.654;9.250;2022-10-29T09:07:07;20.10;1.00
2202;DHT22;1107;48.654;9.250;2022-10-29T09:09:38;20.00;1.00
2202;DHT22;1107;48.654;9.250;2022-10-29T09:15:23;19.80;1.00
2202;DHT22;1107;48.654;9.250;2022-10-29T09:18:05;19.80;1.00
2202;DHT22;1107;48.654;9.250;2022-10-29T09:20:43;19.80;1.00
2202;DHT22;1107;48.654;9.250;2022-10-29T09:23:20;19.90;1.00
2202;DHT22;1107;48.654;9.250;2022-10-29T09:25:52;20.20;1.00
2202;DHT22;1107;48.654;9.250;2022-10-29T09:28:27;20.30;1.00
2202;DHT22;1107;48.654;9.250;2022-10-29T09:31:01;20.80;1.00
2202;DHT22;1107;48.654;9.250;2022-10-29T09:33:31;21.20;1.00
2202;DHT22;1107;48.654;9.250;2022-10-29T09:36:00;21.60;1.00
2202;DHT22;1107;48.654;9.250;2022-10-29T09:38:31;22.20;1.00
2202;DHT22;1107;48.654;9.250;2022-10-29T09:41:00;23.10;1.00
2202;DHT22;1107;48.654;9.250;2022-10-29T09:43:37;23.50;1.00
2202;DHT22;1107;48.654;9.250;2022-10-29T09:46:10;24.20;99.90
2202;DHT22;1107;48.654;9.250;2022-10-29T09:48:44;24.40;99.90
2202;DHT22;1107;48.654;9.250;2022-10-29T09:51:20;25.10;99.90
2202;DHT22;1107;48.654;9.250;2022-10-29T09:53:50;25.30;99.90
2202;DHT22;1107;48.654;9.250;2022-10-29T09:56:17;25.00;99.90
2202;DHT22;1107;48.654;9.250;2022-10-29T09:58:50;25.70;99.90
2202;DHT22;1107;48.654;9.250;2022-10-29T10:01:18;26.40;99.90
2202;DHT22;1107;48.654;9.250;2022-10-29T10:03:48;26.60;99.90
2202;DHT22;1107;48.654;9.250;2022-10-29T10:06:20;26.90;99.90
2202;DHT22;1107;48.654;9.250;2022-10-29T10:09:00;27.10;99.90
2202;DHT22;1107;48.654;9.250;2022-10-29T10:11:34;27.40;99.90
2202;DHT22;1107;48.654;9.250;2022-10-29T10:14:08;27.40;99.90
2202;DHT22;1107;48.654;9.250;2022-10-29T10:16:40;27.70;99.90
2202;DHT22;1107;48.654;9.250;2022-10-29T10:19:21;28.30;99.90
2202;DHT22;1107;48.654;9.250;2022-10-29T10:21:57;28.80;99.90
2202;DHT22;1107;48.654;9.250;2022-10-29T10:24:30;29.50;99.90
2202;DHT22;1107;48.654;9.250;2022-10-29T10:26:57;30.20;99.90
2202;DHT22;1107;48.654;9.250;2022-10-29T10:29:25;30.50;99.90
2202;DHT22;1107;48.654;9.250;2022-10-29T10:32:13;30.80;99.90
2202;DHT22;1107;48.654;9.250;2022-10-29T10:34:40;30.80;99.90
2202;DHT22;1107;48.654;9.250;2022-10-29T10:37:15;31.00;99.90
2202;DHT22;1107;48.654;9.250;2022-10-29T10:39:45;31.60;99.90
2202;DHT22;1107;48.654;9.250;2022-10-29T10:42:17;31.60;99.90
2202;DHT22;1107;48.654;9.250;2022-10-29T10:44:48;32.40;99.90
2202;DHT22;1107;48.654;9.250;2022-10-29T10:47:18;32.70;99.90
2202;DHT22;1107;48.654;9.250;2022-10-29T10:49:46;32.50;99.90
2202;DHT22;1107;48.654;9.250;2022-10-29T10:52:19;32.60;99.90
2202;DHT22;1107;48.654;9.250;2022-10-29T10:54:54;32.90;99.90
2202;DHT22;1107;48.654;9.250;2022-10-29T10:57:24;33.20;99.90
2202;DHT22;1107;48.654;9.250;2022-10-29T10:59:56;33.30;99.90
2202;DHT22;1107;48.654;9.250;2022-10-29T11:02:32;32.70;99.90
2202;DHT22;1107;48.654;9.250;2022-10-29T11:05:05;32.40;99.90
2202;DHT22;1107;48.654;9.250;2022-10-29T11:07:38;32.60;99.90
2202;DHT22;1107;48.654;9.250;2022-10-29T11:10:10;32.40;99.90
2202;DHT22;1107;48.654;9.250;2022-10-29T11:12:41;33.10;99.90
2202;DHT22;1107;48.654;9.250;2022-10-29T11:15:13;32.70;99.90
2202;DHT22;1107;48.654;9.250;2022-10-29T11:17:46;32.60;99.90
2202;DHT22;1107;48.654;9.250;2022-10-29T11:20:20;33.30;99.90
2202;DHT22;1107;48.654;9.250;2022-10-29T11:22:57;33.50;99.90
2202;DHT22;1107;48.654;9.250;2022-10-29T11:25:28;33.90;99.90
2202;DHT22;1107;48.654;9.250;2022-10-29T11:28:00;34.00;99.90
2202;DHT22;1107;48.654;9.250;2022-10-29T11:30:32;34.30;99.90
2202;DHT22;1107;48.654;9.250;2022-10-29T11:33:08;34.70;99.90
2202;DHT22;1107;48.654;9.250;2022-10-29T11:35:44;35.00;99.90
2202;DHT22;1107;48.654;9.250;2022-10-29T11:38:17;34.90;99.90
2202;DHT22;1107;48.654;9.250;2022-10-29T11:40:49;35.00;99.90
2202;DHT22;1107;48.654;9.250;2022-10-29T11:43:19;35.10;99.90
2202;DHT22;1107;48.654;9.250;2022-10-29T11:45:57;35.40;99.90
2202;DHT22;1107;48.654;9.250;2022-10-29T11:48:34;35.40;99.90
2202;DHT22;1107;48.654;9.250;2022-10-29T11:51:12;35.80;99.90
2202;DHT22;1107;48.654;9.250;2022-10-29T11:53:56;35.90;99.90
2202;DHT22;1107;48.654;9.250;2022-10-29T11:56:47;36.10;99.90
2202;DHT22;1107;48.654;9.250;2022-10-29T11:59:24;36.30;99.90
2202;DHT22;1107;48.654;9.250;2022-10-29T12:01:59;36.50;99.90
2202;DHT22;1107;48.654;9.250;2022-10-29T12:04:30;36.50;99.90
2202;DHT22;1107;48.654;9.250;2022-10-29T12:07:13;36.70;99.90
2202;DHT22;1107;48.654;9.250;2022-10-29T12:10:01;36.60;99.90
2202;DHT22;1107;48.654;9.250;2022-10-29T12:12:35;36.50;98.50
2202;DHT22;1107;48.654;9.250;2022-10-29T12:15:14;36.50;99.00
2202;DHT22;1107;48.654;9.250;2022-10-29T12:17:49;36.50;99.30
2202;DHT22;1107;48.654;9.250;2022-10-29T12:20:26;35.80;95.90
2202;DHT22;1107;48.654;9.250;2022-10-29T12:22:58;35.00;92.90
2202;DHT22;1107;48.654;9.250;2022-10-29T12:25:35;33.70;89.40
2202;DHT22;1107;48.654;9.250;2022-10-29T12:28:12;33.80;91.40
2202;DHT22;1107;48.654;9.250;2022-10-29T12:30:51;34.30;97.10
2202;DHT22;1107;48.654;9.250;2022-10-29T12:33:23;34.00;95.60
2202;DHT22;1107;48.654;9.250;2022-10-29T12:35:56;34.30;96.60
2202;DHT22;1107;48.654;9.250;2022-10-29T12:38:35;34.00;94.60
2202;DHT22;1107;48.654;9.250;2022-10-29T12:41:06;34.10;95.00
2202;DHT22;1107;48.654;9.250;2022-10-29T12:43:35;33.50;94.00
2202;DHT22;1107;48.654;9.250;2022-10-29T12:46:12;33.10;99.90
2202;DHT22;1107;48.654;9.250;2022-10-29T12:48:54;33.00;95.00
2202;DHT22;1107;48.654;9.250;2022-10-29T12:51:26;32.70;94.60
2202;DHT22;1107;48.654;9.250;2022-10-29T12:54:12;32.50;95.10
2202;DHT22;1107;48.654;9.250;2022-10-29T12:56:42;31.50;91.70
2202;DHT22;1107;48.654;9.250;2022-10-29T12:59:30;30.20;86.00
2202;DHT22;1107;48.654;9.250;2022-10-29T13:05:17;29.60;94.30
2202;DHT22;1107;48.654;9.250;2022-10-29T13:08:25;30.10;98.20
2202;DHT22;1107;48.654;9.250;2022-10-29T13:10:54;30.90;99.90
2202;DHT22;1107;48.654;9.250;2022-10-29T13:13:46;31.50;99.90
2202;DHT22;1107;48.654;9.250;2022-10-29T13:16:18;31.90;99.90
2202;DHT22;1107;48.654;9.250;2022-10-29T13:19:02;32.10;99.90
2202;DHT22;1107;48.654;9.250;2022-10-29T13:21:56;32.20;99.90
2202;DHT22;1107;48.654;9.250;2022-10-29T13:24:23;32.00;98.50
2202;DHT22;1107;48.654;9.250;2022-10-29T13:26:56;31.90;98.50
2202;DHT22;1107;48.654;9.250;2022-10-29T13:29:47;31.60;94.90
2202;DHT22;1107;48.654;9.250;2022-10-29T13:32:31;31.70;97.00
2202;DHT22;1107;48.654;9.250;2022-10-29T13:34:59;31.50;96.20
2202;DHT22;1107;48.654;9.250;2022-10-29T13:37:48;31.10;95.30
2202;DHT22;1107;48.654;9.250;2022-10-29T13:40:37;30.50;93.70
2202;DHT22;1107;48.654;9.250;2022-10-29T13:43:10;30.20;93.70
2202;DHT22;1107;48.654;9.250;2022-10-29T13:45:42;29.80;94.30
2202;DHT22;1107;48.654;9.250;2022-10-29T13:48:16;29.50;95.50
2202;DHT22;1107;48.654;9.250;2022-10-29T13:50:48;29.20;95.00
2202;DHT22;1107;48.654;9.250;2022-10-29T13:53:19;29.10;96.20
2202;DHT22;1107;48.654;9.250;2022-10-29T13:55:48;28.90;98.20
2202;DHT22;1107;48.654;9.250;2022-10-29T13:58:21;28.70;97.00
2202;DHT22;1107;48.654;9.250;2022-10-29T14:00:54;28.40;97.70
2202;DHT22;1107;48.654;9.250;2022-10-29T14:03:28;28.30;99.80
2202;DHT22;1107;48.654;9.250;2022-10-29T14:06:01;28.00;99.70
2202;DHT22;1107;48.654;9.250;2022-10-29T14:08:34;28.00;99.90
2202;DHT22;1107;48.654;9.250;2022-10-29T14:11:10;27.90;99.90
2202;DHT22;1107;48.654;9.250;2022-10-29T14:13:42;28.20;99.90
2202;DHT22;1107;48.654;9.250;2022-10-29T14:16:13;28.30;99.90
2202;DHT22;1107;48.654;9.250;2022-10-29T14:18:41;28.20;99.90
2202;DHT22;1107;48.654;9.250;2022-10-29T14:21:13;28.00;99.90
2202;DHT22;1107;48.654;9.250;2022-10-29T14:23:56;27.70;99.90
2202;DHT22;1107;48.654;9.250;2022-10-29T14:26:23;27.60;99.90
2202;DHT22;1107;48.654;9.250;2022-10-29T14:28:51;27.30;99.90
2202;DHT22;1107;48.654;9.250;2022-10-29T14:31:21;27.10;99.90
2202;DHT22;1107;48.654;9.250;2022-10-29T14:33:53;26.90;99.90
2202;DHT22;1107;48.654;9.250;2022-10-29T14:36:26;26.70;99.90
2202;DHT22;1107;48.654;9.250;2022-10-29T14:38:56;26.50;99.90
2202;DHT22;1107;48.654;9.250;2022-10-29T14:41:25;26.30;99.90
2202;DHT22;1107;48.654;9.250;2022-10-29T14:44:01;26.10;99.90
2202;DHT22;1107;48.654;9.250;2022-10-29T14:46:32;25.90;99.90
2202;DHT22;1107;48.654;9.250;2022-10-29T14:49:03;25.60;99.90
2202;DHT22;1107;48.654;9.250;2022-10-29T14:51:36;25.30;99.90
2202;DHT22;1107;48.654;9.250;2022-10-29T14:54:05;24.90;99.90
2202;DHT22;1107;48.654;9.250;2022-10-29T14:56:34;24.50;99.90
2202;DHT22;1107;48.654;9.250;2022-10-29T14:59:16;24.30;99.90
2202;DHT22;1107;48.654;9.250;2022-10-29T15:01:49;24.10;99.90
2202;DHT22;1107;48.654;9.250;2022-10-29T15:04:21;23.90;99.90
2202;DHT22;1107;48.654;9.250;2022-10-29T15:06:49;23.70;99.90
2202;DHT22;1107;48.654;9.250;2022-10-29T15:09:17;23.60;99.90
2202;DHT22;1107;48.654;9.250;2022-10-29T15:12:00;23.50;99.90
2202;DHT22;1107;48.654;9.250;2022-10-29T15:14:33;23.40;99.90
2202;DHT22;1107;48.654;9.250;2022-10-29T15:17:10;23.30;99.90
2202;DHT22;1107;48.654;9.250;2022-10-29T15:19:41;23.20;99.90
2202;DHT22;1107;48.654;9.250;2022-10-29T15:22:13;23.10;99.90
2202;DHT22;1107;48.654;9.250;2022-10-29T15:24:44;23.00;99.90
2202;DHT22;1107;48.654;9.250;2022-10-29T15:27:13;22.80;99.90
2202;DHT22;1107;48.654;9.250;2022-10-29T15:29:45;22.70;99.90
2202;DHT22;1107;48.654;9.250;2022-10-29T15:32:16;22.60;99.90
2202;DHT22;1107;48.654;9.250;2022-10-29T15:34:48;22.50;99.90
2202;DHT22;1107;48.654;9.250;2022-10-29T15:37:25;22.40;1.00
2202;DHT22;1107;48.654;9.250;2022-10-29T15:40:04;22.20;1.00
2202;DHT22;1107;48.654;9.250;2022-10-29T15:42:33;22.20;1.00
2202;DHT22;1107;48.654;9.250;2022-10-29T15:45:24;22.10;1.00
2202;DHT22;1107;48.654;9.250;2022-10-29T15:47:56;22.00;1.00
2202;DHT22;1107;48.654;9.250;2022-10-29T15:50:25;22.00;1.00
2202;DHT22;1107;48.654;9.250;2022-10-29T15:52:55;21.90;1.00
2202;DHT22;1107;48.654;9.250;2022-10-29T15:55:25;21.80;1.00
2202;DHT22;1107;48.654;9.250;2022-10-29T15:57:56;21.70;1.00
2202;DHT22;1107;48.654;9.250;2022-10-29T16:00:24;21.70;1.00
2202;DHT22;1107;48.654;9.250;2022-10-29T16:02:54;21.60;1.00
2202;DHT22;1107;48.654;9.250;2022-10-29T16:05:23;21.50;1.00
2202;DHT22;1107;48.654;9.250;2022-10-29T16:07:50;21.50;1.00
2202;DHT22;1107;48.654;9.250;2022-10-29T16:10:19;21.40;1.00
2202;DHT22;1107;48.654;9.250;2022-10-29T16:12:47;21.30;1.00
2202;DHT22;1107;48.654;9.250;2022-10-29T16:15:17;21.30;1.00
2202;DHT22;1107;48.654;9.250;2022-10-29T16:17:44;21.30;1.00
2202;DHT22;1107;48.654;9.250;2022-10-29T16:20:14;21.20;1.00
2202;DHT22;1107;48.654;9.250;2022-10-29T16:22:42;21.20;1.00
2202;DHT22;1107;48.654;9.250;2022-10-29T16:25:21;21.20;1.00
2202;DHT22;1107;48.654;9.250;2022-10-29T16:27:49;21.20;1.00
2202;DHT22;1107;48.654;9.250;2022-10-29T16:30:16;21.20;1.00
2202;DHT22;1107;48.654;9.250;2022-10-29T16:32:43;21.20;1.00
2202;DHT22;1107;48.654;9.250;2022-10-29T16:35:19;21.10;1.00
2202;DHT22;1107;48.654;9.250;2022-10-29T16:37:47;21.10;1.00
2202;DHT22;1107;48.654;9.250;2022-10-29T16:40:15;21.10;1.00
2202;DHT22;1107;48.654;9.250;2022-10-29T16:42:42;21.10;1.00
2202;DHT22;1107;48.654;9.250;2022-10-29T16:45:13;21.00;1.00